Time;durP1;ratioP1;P1;durP2;ratioP2;P2;SDS_P1;SDS_P2;PMS_P1;PMS_P2;Temp;Humidity;BMP_temperature;BMP_pressure;BME280_temperature;BME280_humidity;BME280_pressure;Samples;Min_cycle;Max_cycle;Signal;HPM_P1;HPM_P2
2021/12/27 00:00:53;;;;;;;;;;;-2.10;99.90;;;;;;6271246;22;19919;-57
2021/12/27 00:03:19;;;;;;;;;;;-2.10;99.90;;;;;;6271339;22;19977;-58
2021/12/27 00:05:44;;;;;;;;;;;-2.10;99.90;;;;;;6271065;22;19924;-57
2021/12/27 00:08:10;;;;;;;;;;;-2.20;99.90;;;;;;6243163;22;19919;-59
2021/12/27 00:10:35;;;;;;;;;;;-2.20;99.90;;;;;;6244333;22;19953;-57
2021/12/27 00:13:02;;;;;;;;;;;-2.30;99.90;;;;;;6271115;22;20285;-58
2021/12/27 00:15:28;;;;;;;;;;;-2.40;99.90;;;;;;6271445;22;19923;-57
2021/12/27 00:17:54;;;;;;;;;;;-2.40;99.90;;;;;;6270223;22;20459;-57
2021/12/27 00:20:20;;;;;;;;;;;-1.90;99.90;;;;;;6270842;22;20256;-59
2021/12/27 00:22:46;;;;;;;;;;;-2.50;99.90;;;;;;6271283;22;19923;-58
2021/12/27 00:25:12;;;;;;;;;;;-2.50;99.90;;;;;;6243818;22;20303;-58
2021/12/27 00:27:38;;;;;;;;;;;-2.60;99.90;;;;;;6270889;22;20276;-58
2021/12/27 00:30:04;;;;;;;;;;;-2.60;99.90;;;;;;6271490;22;20292;-57
2021/12/27 00:32:30;;;;;;;;;;;-2.70;99.90;;;;;;6243168;22;19927;-57
2021/12/27 00:34:55;;;;;;;;;;;-2.70;99.90;;;;;;6271537;22;19929;-57
2021/12/27 00:37:21;;;;;;;;;;;-2.70;99.90;;;;;;6270811;22;20059;-57
2021/12/27 00:39:47;;;;;;;;;;;-2.70;99.90;;;;;;6270949;22;19930;-57
2021/12/27 00:42:13;;;;;;;;;;;-2.70;99.90;;;;;;6270884;22;20032;-57
2021/12/27 00:44:38;;;;;;;;;;;-2.70;99.90;;;;;;6270542;22;19931;-57
2021/12/27 00:47:04;;;;;;;;;;;-2.70;99.90;;;;;;6271057;22;19934;-57
2021/12/27 00:49:29;;;;;;;;;;;-2.70;99.90;;;;;;6271098;22;20300;-57
2021/12/27 00:51:55;;;;;;;;;;;-2.70;99.90;;;;;;6271131;22;19997;-57
2021/12/27 00:54:21;;;;;;;;;;;-2.50;99.90;;;;;;6270688;22;19928;-58
2021/12/27 00:56:46;;;;;;;;;;;-2.70;99.90;;;;;;6270636;22;19973;-57
2021/12/27 00:59:12;;;;;;;;;;;-2.80;99.90;;;;;;6270378;22;20381;-58
2021/12/27 01:01:38;;;;;;;;;;;-2.20;99.90;;;;;;6270662;22;19923;-57
2021/12/27 01:04:04;;;;;;;;;;;-2.80;99.90;;;;;;6243616;22;20351;-58
2021/12/27 01:06:30;;;;;;;;;;;-2.70;99.90;;;;;;6270785;22;20262;-58
2021/12/27 01:08:55;;;;;;;;;;;-2.60;99.90;;;;;;6270541;22;19919;-61
2021/12/27 01:14:09;;;;;;;;;;;-2.50;99.90;;;;;;6270431;22;20439;-57
2021/12/27 01:16:35;;;;;;;;;;;-2.50;99.90;;;;;;6270754;22;19923;-58
2021/12/27 01:19:00;;;;;;;;;;;-2.50;99.90;;;;;;6243026;22;20032;-58
2021/12/27 01:21:26;;;;;;;;;;;-2.40;99.90;;;;;;6270087;22;19930;-58
2021/12/27 01:23:53;;;;;;;;;;;-2.40;99.90;;;;;;6270106;22;19938;-57
2021/12/27 01:26:19;;;;;;;;;;;-2.40;99.90;;;;;;6270134;22;19991;-58
2021/12/27 01:28:44;;;;;;;;;;;-2.30;99.90;;;;;;6270363;22;20365;-58
2021/12/27 01:31:10;;;;;;;;;;;-2.30;99.90;;;;;;6270118;22;19977;-58
2021/12/27 01:33:36;;;;;;;;;;;-2.30;99.90;;;;;;6269798;22;20245;-57
2021/12/27 01:36:02;;;;;;;;;;;-2.30;99.90;;;;;;6270373;22;19923;-58
2021/12/27 01:38:28;;;;;;;;;;;-2.20;99.90;;;;;;6269851;22;19930;-58
2021/12/27 01:40:54;;;;;;;;;;;-2.20;99.90;;;;;;6270144;22;19923;-62
2021/12/27 01:43:21;;;;;;;;;;;-2.20;99.90;;;;;;6270165;22;19957;-61
2021/12/27 01:45:49;;;;;;;;;;;-2.10;99.90;;;;;;6270505;22;20403;-58
2021/12/27 01:48:17;;;;;;;;;;;-2.10;99.90;;;;;;6270268;22;19923;-62
2021/12/27 01:50:44;;;;;;;;;;;-2.10;99.90;;;;;;6270517;22;19930;-59
2021/12/27 01:53:10;;;;;;;;;;;-2.10;99.90;;;;;;6242803;22;20333;-59
2021/12/27 01:55:36;;;;;;;;;;;-2.10;99.90;;;;;;6270436;22;19933;-61
2021/12/27 01:58:02;;;;;;;;;;;-2.10;99.90;;;;;;6270325;22;19986;-61
2021/12/27 02:00:28;;;;;;;;;;;-2.10;99.90;;;;;;6270499;22;19923;-60
2021/12/27 02:02:53;;;;;;;;;;;-2.00;99.90;;;;;;6270256;22;19969;-61
2021/12/27 02:05:19;;;;;;;;;;;-2.00;99.90;;;;;;6270017;22;19923;-58
2021/12/27 02:07:45;;;;;;;;;;;-2.00;99.90;;;;;;6269976;22;19923;-62
2021/12/27 02:10:11;;;;;;;;;;;-2.00;99.90;;;;;;6270111;22;20334;-61
2021/12/27 02:12:37;;;;;;;;;;;-2.00;99.90;;;;;;6270382;22;19923;-61
2021/12/27 02:15:07;;;;;;;;;;;-2.00;99.90;;;;;;6244166;22;19946;-58
2021/12/27 02:17:33;;;;;;;;;;;-2.00;99.90;;;;;;6271833;22;20344;-63
2021/12/27 02:19:59;;;;;;;;;;;-2.00;99.90;;;;;;6272054;22;20338;-61
2021/12/27 02:22:25;;;;;;;;;;;-2.00;99.90;;;;;;6272544;22;19923;-63
2021/12/27 02:24:50;;;;;;;;;;;-2.00;99.90;;;;;;6272523;22;19923;-60
2021/12/27 02:27:16;;;;;;;;;;;-2.00;99.90;;;;;;6271508;22;19923;-63
2021/12/27 02:29:42;;;;;;;;;;;-2.00;99.90;;;;;;6244714;22;19924;-57
2021/12/27 02:32:08;;;;;;;;;;;-2.00;99.90;;;;;;6244515;22;20337;-65
2021/12/27 02:34:34;;;;;;;;;;;-2.00;99.90;;;;;;6243685;22;20378;-62
2021/12/27 02:37:00;;;;;;;;;;;-1.70;99.90;;;;;;6271944;22;19923;-63
2021/12/27 02:39:29;;;;;;;;;;;-2.00;99.90;;;;;;6239705;23;20165;-61
2021/12/27 02:41:54;;;;;;;;;;;-1.50;99.90;;;;;;6241662;23;19923;-64
2021/12/27 02:44:20;;;;;;;;;;;-1.90;99.90;;;;;;6241489;23;20349;-64
2021/12/27 02:46:46;;;;;;;;;;;-1.60;99.90;;;;;;6241430;23;19930;-61
2021/12/27 02:49:11;;;;;;;;;;;-1.90;99.90;;;;;;6240684;23;20032;-64
2021/12/27 02:51:37;;;;;;;;;;;-1.90;99.90;;;;;;6241802;23;19923;-64
2021/12/27 02:54:02;;;;;;;;;;;-1.90;99.90;;;;;;6241494;23;20005;-64
2021/12/27 02:56:29;;;;;;;;;;;-1.90;99.90;;;;;;6241994;23;19947;-60
2021/12/27 02:58:56;;;;;;;;;;;-1.90;99.90;;;;;;6213704;23;19920;-60
2021/12/27 03:01:23;;;;;;;;;;;-1.80;99.90;;;;;;6240521;23;19927;-58
2021/12/27 03:03:49;;;;;;;;;;;-1.80;99.90;;;;;;6240844;23;19926;-60
2021/12/27 03:06:15;;;;;;;;;;;-1.80;99.90;;;;;;6241510;23;19923;-59
2021/12/27 03:08:41;;;;;;;;;;;-1.80;99.90;;;;;;6240680;23;20243;-58
2021/12/27 03:11:07;;;;;;;;;;;-0.80;99.90;;;;;;6241445;23;20262;-60
2021/12/27 03:13:34;;;;;;;;;;;-1.80;99.90;;;;;;6241473;23;19930;-59
2021/12/27 03:16:00;;;;;;;;;;;-1.70;99.90;;;;;;6241400;23;19927;-60
2021/12/27 03:18:26;;;;;;;;;;;-1.70;99.90;;;;;;6240750;23;19923;-59
2021/12/27 03:20:52;;;;;;;;;;;-1.70;99.90;;;;;;6240917;23;19931;-58
2021/12/27 03:23:18;;;;;;;;;;;-1.70;99.90;;;;;;6213685;23;20246;-60
2021/12/27 03:25:43;;;;;;;;;;;-1.70;99.90;;;;;;6241406;23;19923;-63
2021/12/27 03:28:09;;;;;;;;;;;-1.70;99.90;;;;;;6240832;23;20408;-58
2021/12/27 03:30:36;;;;;;;;;;;-1.70;99.90;;;;;;6241187;23;19924;-60
2021/12/27 03:33:02;;;;;;;;;;;-1.60;99.90;;;;;;6240175;23;20225;-60
2021/12/27 03:35:34;;;;;;;;;;;-1.60;99.90;;;;;;6241079;23;19923;-62
2021/12/27 03:38:00;;;;;;;;;;;-1.60;99.90;;;;;;6240819;23;19924;-58
2021/12/27 03:40:26;;;;;;;;;;;-1.60;99.90;;;;;;6241007;23;19970;-60
2021/12/27 03:42:53;;;;;;;;;;;-1.60;99.90;;;;;;6240778;23;20342;-62
2021/12/27 03:45:23;;;;;;;;;;;-1.60;99.90;;;;;;6240741;23;19931;-58
2021/12/27 03:47:49;;;;;;;;;;;-1.60;99.90;;;;;;6213716;23;19923;-63
2021/12/27 03:50:15;;;;;;;;;;;0.30;99.90;;;;;;6240997;23;19970;-59
2021/12/27 03:52:41;;;;;;;;;;;-1.60;99.90;;;;;;6239805;23;19923;-59
2021/12/27 03:55:07;;;;;;;;;;;-1.50;99.90;;;;;;6240535;23;19983;-62
2021/12/27 03:57:35;;;;;;;;;;;-1.50;99.90;;;;;;6240350;23;19966;-65
2021/12/27 04:00:27;;;;;;;;;;;-1.50;99.90;;;;;;6240972;23;19928;-58
2021/12/27 04:02:57;;;;;;;;;;;-0.80;99.90;;;;;;6238273;23;20366;-65
2021/12/27 04:05:22;;;;;;;;;;;-1.50;99.90;;;;;;6240474;23;19927;-58
2021/12/27 04:07:56;;;;;;;;;;;-1.50;99.90;;;;;;6240369;23;19919;-61
2021/12/27 04:10:22;;;;;;;;;;;-1.20;99.90;;;;;;6240805;23;20002;-64
2021/12/27 04:12:48;;;;;;;;;;;-1.40;99.90;;;;;;6240537;23;19959;-63
2021/12/27 04:15:13;;;;;;;;;;;-1.40;99.90;;;;;;6240470;23;19923;-65
2021/12/27 04:17:39;;;;;;;;;;;-1.40;99.90;;;;;;6240504;23;19930;-65
2021/12/27 04:20:05;;;;;;;;;;;-1.30;99.90;;;;;;6240140;23;19924;-64
2021/12/27 04:22:33;;;;;;;;;;;-1.30;99.90;;;;;;6240878;23;19923;-64
2021/12/27 04:25:02;;;;;;;;;;;-1.30;99.90;;;;;;6240431;23;20215;-63
2021/12/27 04:27:28;;;;;;;;;;;-1.30;99.90;;;;;;6240365;23;20073;-65
2021/12/27 04:29:53;;;;;;;;;;;-1.30;99.90;;;;;;6240052;23;19977;-65
2021/12/27 04:32:19;;;;;;;;;;;-1.20;99.90;;;;;;6240227;23;19923;-58
2021/12/27 04:34:45;;;;;;;;;;;-1.20;99.90;;;;;;6240219;23;20002;-61
2021/12/27 04:37:10;;;;;;;;;;;-1.20;99.90;;;;;;6239780;23;20014;-58
2021/12/27 04:39:36;;;;;;;;;;;-0.70;99.90;;;;;;6240586;23;19923;-58
2021/12/27 04:42:02;;;;;;;;;;;-1.20;99.90;;;;;;6240031;23;20002;-57
2021/12/27 04:44:28;;;;;;;;;;;-1.20;99.90;;;;;;6240189;23;20317;-58
2021/12/27 04:46:54;;;;;;;;;;;-1.10;99.90;;;;;;6212442;23;19930;-58
2021/12/27 04:49:19;;;;;;;;;;;-1.10;99.90;;;;;;6239211;23;19962;-58
2021/12/27 04:51:45;;;;;;;;;;;-1.10;99.90;;;;;;6239409;23;20018;-58
2021/12/27 04:54:11;;;;;;;;;;;-0.50;99.90;;;;;;6240250;23;19938;-57
2021/12/27 04:56:36;;;;;;;;;;;-1.10;99.90;;;;;;6213506;23;20257;-58
2021/12/27 04:59:02;;;;;;;;;;;-1.10;99.90;;;;;;6240216;23;19978;-59
2021/12/27 05:01:28;;;;;;;;;;;-0.90;99.90;;;;;;6239864;23;19927;-58
2021/12/27 05:03:54;;;;;;;;;;;-1.00;99.90;;;;;;6240296;23;19927;-57
2021/12/27 05:06:20;;;;;;;;;;;-1.00;99.90;;;;;;6240227;23;19923;-62
2021/12/27 05:08:46;;;;;;;;;;;-1.00;99.90;;;;;;6212970;23;20245;-63
2021/12/27 05:11:11;;;;;;;;;;;-1.00;99.90;;;;;;6239793;23;19935;-62
2021/12/27 05:13:37;;;;;;;;;;;-1.00;99.90;;;;;;6240171;23;19947;-58
2021/12/27 05:16:03;;;;;;;;;;;-0.90;99.90;;;;;;6240361;23;20267;-64
2021/12/27 05:18:28;;;;;;;;;;;-0.90;99.90;;;;;;6239851;23;19958;-65
2021/12/27 05:20:54;;;;;;;;;;;-0.90;99.90;;;;;;6239380;23;19931;-65
2021/12/27 05:23:20;;;;;;;;;;;-0.90;99.90;;;;;;6240249;23;19946;-65
2021/12/27 05:25:46;;;;;;;;;;;-0.90;99.90;;;;;;6240213;23;20238;-64
2021/12/27 05:28:12;;;;;;;;;;;-0.90;99.90;;;;;;6239851;23;19924;-65
2021/12/27 05:30:38;;;;;;;;;;;-0.80;99.90;;;;;;6240110;23;19930;-60
2021/12/27 05:33:04;;;;;;;;;;;-0.80;99.90;;;;;;6240309;23;19924;-63
2021/12/27 05:35:29;;;;;;;;;;;-0.80;99.90;;;;;;6209923;23;20030;-59
2021/12/27 05:37:55;;;;;;;;;;;-0.80;99.90;;;;;;6239552;23;19923;-58
2021/12/27 05:40:22;;;;;;;;;;;-0.80;99.90;;;;;;6239810;23;20483;-61
2021/12/27 05:42:49;;;;;;;;;;;-0.70;99.90;;;;;;6239107;23;19959;-59
2021/12/27 05:45:15;;;;;;;;;;;-0.10;99.90;;;;;;6239660;23;19919;-58
2021/12/27 05:47:41;;;;;;;;;;;-0.80;99.90;;;;;;6238867;23;19931;-60
2021/12/27 05:50:07;;;;;;;;;;;-0.70;99.90;;;;;;6238366;23;20054;-61
2021/12/27 05:52:33;;;;;;;;;;;-0.70;99.90;;;;;;6238573;23;20338;-61
2021/12/27 05:54:59;;;;;;;;;;;-0.70;99.90;;;;;;6238500;23;20014;-59
2021/12/27 05:57:24;;;;;;;;;;;-0.70;99.90;;;;;;6238492;23;19926;-59
2021/12/27 05:59:50;;;;;;;;;;;-0.70;99.90;;;;;;6239210;23;20314;-59
2021/12/27 06:02:16;;;;;;;;;;;-0.70;99.90;;;;;;6239316;23;19976;-62
2021/12/27 06:04:42;;;;;;;;;;;-0.70;99.90;;;;;;6211205;23;19943;-62
2021/12/27 06:07:07;;;;;;;;;;;-0.70;99.90;;;;;;6239029;23;20413;-60
2021/12/27 06:09:33;;;;;;;;;;;-0.70;99.90;;;;;;6212106;23;19919;-60
2021/12/27 06:11:58;;;;;;;;;;;-0.70;99.90;;;;;;6212404;23;19923;-63
2021/12/27 06:14:24;;;;;;;;;;;-0.70;99.90;;;;;;6239615;23;20302;-61
2021/12/27 06:16:50;;;;;;;;;;;-0.70;99.90;;;;;;6239797;23;19930;-63
2021/12/27 06:19:17;;;;;;;;;;;-0.70;99.90;;;;;;6239502;23;20045;-60
2021/12/27 06:21:42;;;;;;;;;;;-0.70;99.90;;;;;;6239414;23;19924;-62
2021/12/27 06:24:08;;;;;;;;;;;-0.70;99.90;;;;;;6212362;23;19930;-59
2021/12/27 06:26:34;;;;;;;;;;;-0.70;99.90;;;;;;6211863;23;19923;-62
2021/12/27 06:28:59;;;;;;;;;;;-0.70;99.90;;;;;;6238937;23;20012;-65
2021/12/27 06:31:25;;;;;;;;;;;-0.60;99.90;;;;;;6239726;23;19923;-58
2021/12/27 06:33:51;;;;;;;;;;;-0.60;99.90;;;;;;6239361;23;19923;-65
2021/12/27 06:36:16;;;;;;;;;;;-0.70;99.90;;;;;;6239664;23;19954;-61
2021/12/27 06:38:42;;;;;;;;;;;-0.70;99.90;;;;;;6239499;23;19931;-61
2021/12/27 06:41:07;;;;;;;;;;;-0.70;99.90;;;;;;6239678;23;20285;-62
2021/12/27 06:43:33;;;;;;;;;;;-0.70;99.90;;;;;;6238943;23;19923;-62
2021/12/27 06:45:59;;;;;;;;;;;-0.70;99.90;;;;;;6239087;23;19923;-58
2021/12/27 06:48:25;;;;;;;;;;;-0.70;99.90;;;;;;6238663;23;19977;-63
2021/12/27 06:50:51;;;;;;;;;;;-0.70;99.90;;;;;;6239564;23;19924;-61
2021/12/27 06:53:16;;;;;;;;;;;-0.70;99.90;;;;;;6212176;23;20002;-61
2021/12/27 06:55:43;;;;;;;;;;;0.00;99.90;;;;;;6239722;23;19923;-64
2021/12/27 06:58:08;;;;;;;;;;;-0.70;99.90;;;;;;6239467;23;19923;-60
2021/12/27 07:00:34;;;;;;;;;;;-0.70;99.90;;;;;;6241521;23;19959;-61
2021/12/27 07:03:00;;;;;;;;;;;1.30;99.90;;;;;;6240425;23;20335;-65
2021/12/27 07:05:25;;;;;;;;;;;-0.70;99.90;;;;;;6241182;23;20291;-61
2021/12/27 07:07:51;;;;;;;;;;;-0.70;99.90;;;;;;6214139;23;19974;-59
2021/12/27 07:10:19;;;;;;;;;;;-0.70;99.90;;;;;;6240112;23;20341;-58
2021/12/27 07:12:45;;;;;;;;;;;-0.70;99.90;;;;;;6188772;23;19974;-58
2021/12/27 07:15:10;;;;;;;;;;;0.10;99.90;;;;;;6240875;23;20335;-60
2021/12/27 07:17:36;;;;;;;;;;;-0.70;99.90;;;;;;6240633;23;19927;-59
2021/12/27 07:20:02;;;;;;;;;;;-0.70;99.90;;;;;;6213760;23;19924;-63
2021/12/27 07:22:28;;;;;;;;;;;-0.70;99.90;;;;;;6240390;23;19923;-61
2021/12/27 07:24:54;;;;;;;;;;;-0.70;99.90;;;;;;6240868;23;19994;-61
2021/12/27 07:27:19;;;;;;;;;;;-0.70;99.90;;;;;;6240245;23;19946;-61
2021/12/27 07:29:45;;;;;;;;;;;-0.70;99.90;;;;;;6241155;23;19923;-62
2021/12/27 07:32:11;;;;;;;;;;;-0.70;99.90;;;;;;6213950;23;20298;-58
2021/12/27 07:34:36;;;;;;;;;;;-0.60;99.90;;;;;;6240359;23;19970;-63
2021/12/27 07:37:02;;;;;;;;;;;-0.60;99.90;;;;;;6240688;23;20271;-60
2021/12/27 07:39:28;;;;;;;;;;;-0.60;99.90;;;;;;6213758;23;19932;-59
2021/12/27 07:41:53;;;;;;;;;;;-0.60;99.90;;;;;;6240900;23;19919;-60
2021/12/27 07:44:19;;;;;;;;;;;-0.60;99.90;;;;;;6240811;23;20246;-58
2021/12/27 07:46:46;;;;;;;;;;;0.10;99.90;;;;;;6240498;23;19955;-62
2021/12/27 07:49:12;;;;;;;;;;;0.50;99.90;;;;;;6240516;23;19920;-59
2021/12/27 07:51:38;;;;;;;;;;;-0.60;99.90;;;;;;6240524;23;19923;-59
2021/12/27 07:54:04;;;;;;;;;;;-0.60;99.90;;;;;;6239900;23;19924;-61
2021/12/27 07:56:30;;;;;;;;;;;-0.60;99.90;;;;;;6239945;23;19927;-58
2021/12/27 07:58:55;;;;;;;;;;;-0.50;99.90;;;;;;6240168;23;19923;-58
2021/12/27 08:01:21;;;;;;;;;;;-0.60;99.90;;;;;;6240115;23;19967;-59
2021/12/27 08:03:47;;;;;;;;;;;-0.30;99.90;;;;;;6239685;23;19963;-61
2021/12/27 08:06:12;;;;;;;;;;;-0.50;99.90;;;;;;6212760;23;20941;-61
2021/12/27 08:08:38;;;;;;;;;;;0.00;99.90;;;;;;6239473;23;19924;-61
2021/12/27 08:11:03;;;;;;;;;;;-0.50;99.90;;;;;;6238806;23;20338;-58
2021/12/27 08:13:29;;;;;;;;;;;-0.50;99.90;;;;;;6236788;23;20381;-60
2021/12/27 08:15:54;;;;;;;;;;;-0.50;99.90;;;;;;6239861;23;19924;-57
2021/12/27 08:18:21;;;;;;;;;;;-0.50;99.90;;;;;;6239359;23;19958;-58
2021/12/27 08:20:47;;;;;;;;;;;-0.50;99.90;;;;;;6239051;23;19930;-58
2021/12/27 08:23:13;;;;;;;;;;;-0.40;99.90;;;;;;6212165;23;20022;-58
2021/12/27 08:25:39;;;;;;;;;;;-0.40;99.90;;;;;;6240012;23;20250;-58
2021/12/27 08:28:05;;;;;;;;;;;-0.40;99.90;;;;;;6239688;23;19923;-57
2021/12/27 08:30:31;;;;;;;;;;;-0.40;99.90;;;;;;6239517;23;19973;-58
2021/12/27 08:32:58;;;;;;;;;;;-0.30;99.90;;;;;;6233770;23;19967;-59
2021/12/27 08:35:24;;;;;;;;;;;-0.30;99.90;;;;;;6238491;23;19924;-58
2021/12/27 08:37:50;;;;;;;;;;;-0.30;99.90;;;;;;6237873;23;19990;-58
2021/12/27 08:40:16;;;;;;;;;;;0.30;99.90;;;;;;6238599;23;20363;-59
2021/12/27 08:42:41;;;;;;;;;;;-0.30;99.90;;;;;;6237904;23;20284;-59
2021/12/27 08:45:07;;;;;;;;;;;-0.30;99.90;;;;;;6235755;23;19960;-57
2021/12/27 08:47:33;;;;;;;;;;;-0.20;99.90;;;;;;6234330;23;20273;-58
2021/12/27 08:50:00;;;;;;;;;;;-0.20;99.90;;;;;;6234238;23;20038;-58
2021/12/27 08:52:28;;;;;;;;;;;-0.20;99.90;;;;;;6234710;23;19930;-59
2021/12/27 08:54:53;;;;;;;;;;;-0.20;99.90;;;;;;6234699;23;20417;-57
2021/12/27 08:57:19;;;;;;;;;;;-0.10;99.90;;;;;;6236601;23;19923;-58
2021/12/27 08:59:44;;;;;;;;;;;-0.10;99.90;;;;;;6234664;23;19923;-58
2021/12/27 09:02:10;;;;;;;;;;;-0.10;99.90;;;;;;6235114;23;20318;-58
2021/12/27 09:04:36;;;;;;;;;;;-0.10;99.90;;;;;;6234745;23;19930;-58
2021/12/27 09:07:02;;;;;;;;;;;0.00;99.90;;;;;;6208249;23;20002;-58
2021/12/27 09:09:27;;;;;;;;;;;0.00;99.90;;;;;;6208122;23;19924;-62
2021/12/27 09:11:53;;;;;;;;;;;0.00;99.90;;;;;;6236166;23;19923;-57
2021/12/27 09:14:19;;;;;;;;;;;0.00;99.90;;;;;;6207541;23;19927;-57
2021/12/27 09:16:45;;;;;;;;;;;0.10;99.90;;;;;;6236275;23;19923;-59
2021/12/27 09:19:14;;;;;;;;;;;0.10;99.90;;;;;;6233814;23;19962;-62
2021/12/27 09:21:40;;;;;;;;;;;0.10;99.90;;;;;;6234545;23;19955;-59
2021/12/27 09:24:06;;;;;;;;;;;0.20;99.90;;;;;;6233487;23;19959;-58
2021/12/27 09:26:32;;;;;;;;;;;0.20;99.90;;;;;;6235504;23;19931;-60
2021/12/27 09:28:58;;;;;;;;;;;0.40;99.90;;;;;;6235073;23;20226;-60
2021/12/27 09:31:23;;;;;;;;;;;0.20;99.90;;;;;;6231752;23;19923;-59
2021/12/27 09:33:49;;;;;;;;;;;0.20;99.90;;;;;;6235675;23;19934;-59
2021/12/27 09:36:15;;;;;;;;;;;0.30;99.90;;;;;;6233318;23;19923;-59
2021/12/27 09:38:40;;;;;;;;;;;0.30;99.90;;;;;;6206877;23;19930;-61
2021/12/27 09:41:06;;;;;;;;;;;0.30;99.90;;;;;;6234773;23;19924;-60
2021/12/27 09:43:32;;;;;;;;;;;0.40;99.90;;;;;;6234214;23;20342;-60
2021/12/27 09:45:58;;;;;;;;;;;0.40;99.90;;;;;;6205728;23;20010;-63
2021/12/27 09:48:23;;;;;;;;;;;0.40;99.90;;;;;;6234536;23;19924;-61
2021/12/27 09:50:50;;;;;;;;;;;0.40;99.90;;;;;;6235043;23;20279;-59
2021/12/27 09:53:16;;;;;;;;;;;0.40;99.90;;;;;;6235885;23;19970;-58
2021/12/27 09:55:42;;;;;;;;;;;0.90;99.90;;;;;;6235017;23;19928;-62
2021/12/27 09:58:07;;;;;;;;;;;0.60;99.90;;;;;;6207777;23;19973;-60
2021/12/27 10:00:34;;;;;;;;;;;1.60;99.90;;;;;;6234482;23;20375;-62
2021/12/27 10:03:00;;;;;;;;;;;0.40;99.90;;;;;;6208158;23;20393;-58
2021/12/27 10:05:27;;;;;;;;;;;0.50;99.90;;;;;;6235572;23;19934;-63
2021/12/27 10:07:52;;;;;;;;;;;0.50;99.90;;;;;;6234783;23;20652;-65
2021/12/27 10:10:18;;;;;;;;;;;0.50;99.90;;;;;;6208345;23;20258;-62
2021/12/27 10:12:44;;;;;;;;;;;0.50;99.90;;;;;;6234392;23;19951;-64
2021/12/27 10:15:13;;;;;;;;;;;0.60;99.90;;;;;;6235933;23;19924;-58
2021/12/27 10:17:38;;;;;;;;;;;0.60;99.90;;;;;;6234925;23;19928;-64
2021/12/27 10:20:15;;;;;;;;;;;0.60;99.90;;;;;;6207978;23;19928;-63
2021/12/27 10:22:47;;;;;;;;;;;0.60;99.90;;;;;;6234712;23;19924;-66
2021/12/27 10:25:13;;;;;;;;;;;0.60;99.90;;;;;;6235489;23;19923;-65
2021/12/27 10:27:39;;;;;;;;;;;0.70;99.90;;;;;;6234854;23;19924;-65
2021/12/27 10:30:13;;;;;;;;;;;0.80;99.90;;;;;;6236107;23;19977;-58
2021/12/27 10:32:39;;;;;;;;;;;0.70;99.90;;;;;;6235695;23;19923;-61
2021/12/27 10:35:06;;;;;;;;;;;0.90;99.90;;;;;;6236510;23;19928;-57
2021/12/27 10:37:32;;;;;;;;;;;1.00;99.90;;;;;;6237018;23;19923;-61
2021/12/27 10:40:04;;;;;;;;;;;1.00;99.90;;;;;;6210909;23;19930;-57
2021/12/27 10:42:31;;;;;;;;;;;1.00;99.90;;;;;;6210159;23;19924;-58
2021/12/27 10:44:59;;;;;;;;;;;0.30;99.90;;;;;;6237673;23;19927;-58
2021/12/27 10:47:25;;;;;;;;;;;1.10;99.90;;;;;;6235665;23;19930;-62
2021/12/27 10:49:50;;;;;;;;;;;1.70;99.90;;;;;;6236108;23;20238;-61
2021/12/27 10:52:16;;;;;;;;;;;1.30;99.90;;;;;;6237577;23;19930;-63
2021/12/27 10:54:41;;;;;;;;;;;1.40;99.90;;;;;;6237448;23;20327;-61
2021/12/27 10:57:07;;;;;;;;;;;1.40;99.90;;;;;;6236244;23;19924;-62
2021/12/27 10:59:35;;;;;;;;;;;1.40;99.90;;;;;;6236320;23;19923;-63
2021/12/27 11:02:11;;;;;;;;;;;1.50;99.90;;;;;;6236972;23;20376;-60
2021/12/27 11:04:37;;;;;;;;;;;1.40;99.90;;;;;;6237014;23;20346;-60
2021/12/27 11:07:04;;;;;;;;;;;1.50;99.90;;;;;;6237247;23;19929;-58
2021/12/27 11:09:30;;;;;;;;;;;1.50;99.90;;;;;;6236533;23;20747;-59
2021/12/27 11:11:56;;;;;;;;;;;1.60;99.90;;;;;;6236875;23;20002;-61
2021/12/27 11:14:21;;;;;;;;;;;1.60;99.90;;;;;;6236942;23;19958;-60
2021/12/27 11:16:47;;;;;;;;;;;1.60;99.90;;;;;;6237191;23;20417;-62
2021/12/27 11:19:13;;;;;;;;;;;1.60;99.90;;;;;;6183547;23;20361;-60
2021/12/27 11:21:42;;;;;;;;;;;1.50;99.90;;;;;;6237094;23;19924;-61
2021/12/27 11:24:08;;;;;;;;;;;1.50;99.90;;;;;;6235962;23;19923;-62
2021/12/27 11:26:34;;;;;;;;;;;1.50;99.90;;;;;;6236337;23;19931;-59
2021/12/27 11:29:20;;;;;;;;;;;1.50;99.90;;;;;;6236153;23;19923;-62
2021/12/27 11:31:46;;;;;;;;;;;1.50;99.90;;;;;;6236485;23;19924;-61
2021/12/27 11:34:13;;;;;;;;;;;1.60;99.90;;;;;;6208180;23;19927;-59
2021/12/27 11:36:40;;;;;;;;;;;1.50;99.90;;;;;;6232823;23;20216;-61
2021/12/27 11:39:42;;;;;;;;;;;1.60;99.90;;;;;;6206814;23;19974;-59
2021/12/27 11:42:09;;;;;;;;;;;1.50;99.90;;;;;;6182967;23;20308;-62
2021/12/27 11:44:35;;;;;;;;;;;1.50;99.90;;;;;;6235761;23;19924;-59
2021/12/27 11:47:00;;;;;;;;;;;1.60;99.90;;;;;;6237049;23;20205;-58
2021/12/27 11:49:37;;;;;;;;;;;2.40;99.90;;;;;;6236275;23;19923;-61
2021/12/27 11:52:19;;;;;;;;;;;1.60;99.90;;;;;;6236602;23;20002;-63
2021/12/27 11:54:54;;;;;;;;;;;1.50;99.90;;;;;;6234622;23;20341;-58
2021/12/27 11:57:38;;;;;;;;;;;1.60;99.90;;;;;;6236061;23;19931;-57
2021/12/27 12:00:24;;;;;;;;;;;1.50;99.90;;;;;;6208886;23;19923;-57
2021/12/27 12:02:55;;;;;;;;;;;1.50;99.90;;;;;;6220033;23;19935;-61
2021/12/27 12:05:34;;;;;;;;;;;1.50;99.90;;;;;;6236101;23;20333;-66
2021/12/27 12:08:00;;;;;;;;;;;1.50;99.90;;;;;;6236709;23;19926;-65
2021/12/27 12:10:26;;;;;;;;;;;1.60;99.90;;;;;;6235633;23;20281;-57
2021/12/27 12:13:11;;;;;;;;;;;1.50;99.90;;;;;;6236092;23;19931;-59
2021/12/27 12:15:36;;;;;;;;;;;1.60;99.90;;;;;;6235916;23;19927;-58
2021/12/27 12:18:15;;;;;;;;;;;2.30;99.90;;;;;;6235060;23;19919;-57
2021/12/27 12:20:41;;;;;;;;;;;1.60;99.90;;;;;;6235795;23;19994;-59
2021/12/27 12:23:08;;;;;;;;;;;2.40;99.90;;;;;;6236379;23;20242;-60
2021/12/27 12:25:34;;;;;;;;;;;1.90;99.90;;;;;;6235108;23;19928;-58
2021/12/27 12:27:59;;;;;;;;;;;1.70;99.90;;;;;;6236085;23;20314;-59
2021/12/27 12:30:27;;;;;;;;;;;1.70;99.90;;;;;;6234766;23;19923;-58
2021/12/27 12:32:57;;;;;;;;;;;1.70;99.90;;;;;;6183425;23;20345;-59
2021/12/27 12:35:32;;;;;;;;;;;1.80;99.90;;;;;;6236136;23;19998;-58
2021/12/27 12:38:09;;;;;;;;;;;1.80;99.90;;;;;;6235535;23;19929;-59
2021/12/27 12:40:35;;;;;;;;;;;1.90;99.90;;;;;;6235858;23;19950;-59
2021/12/27 12:43:01;;;;;;;;;;;1.80;99.90;;;;;;6209635;23;19943;-61
2021/12/27 12:45:30;;;;;;;;;;;1.80;99.90;;;;;;6184386;23;20338;-58
2021/12/27 12:47:56;;;;;;;;;;;1.70;99.90;;;;;;6235780;23;19923;-63
2021/12/27 12:50:22;;;;;;;;;;;2.10;99.90;;;;;;6235705;23;20374;-63
2021/12/27 12:52:52;;;;;;;;;;;1.70;99.90;;;;;;6236708;23;19945;-58
2021/12/27 12:55:24;;;;;;;;;;;1.60;99.90;;;;;;6208314;23;19966;-62
2021/12/27 12:57:50;;;;;;;;;;;1.50;99.90;;;;;;6235940;23;19923;-61
2021/12/27 13:00:30;;;;;;;;;;;1.50;99.90;;;;;;6208122;23;19930;-58
2021/12/27 13:03:08;;;;;;;;;;;1.50;99.90;;;;;;6236618;23;20343;-60
2021/12/27 13:05:33;;;;;;;;;;;1.50;99.90;;;;;;6235790;23;19929;-61
2021/12/27 13:07:59;;;;;;;;;;;1.40;99.90;;;;;;6209049;23;20250;-57
2021/12/27 13:10:25;;;;;;;;;;;1.40;99.90;;;;;;6232387;23;19923;-58
2021/12/27 13:12:51;;;;;;;;;;;1.80;99.90;;;;;;6234864;23;20334;-59
2021/12/27 13:15:30;;;;;;;;;;;1.40;99.90;;;;;;6235134;23;19923;-58
2021/12/27 13:18:04;;;;;;;;;;;1.40;99.90;;;;;;6208211;23;19920;-59
2021/12/27 13:20:30;;;;;;;;;;;1.40;99.90;;;;;;6235106;23;19928;-60
2021/12/27 13:22:56;;;;;;;;;;;1.30;99.90;;;;;;6234593;23;20255;-58
2021/12/27 13:25:38;;;;;;;;;;;1.40;99.90;;;;;;6234141;23;19949;-59
2021/12/27 13:28:08;;;;;;;;;;;1.40;99.90;;;;;;6234141;23;19923;-63
2021/12/27 13:30:43;;;;;;;;;;;1.40;99.90;;;;;;6234118;23;20357;-60
2021/12/27 13:33:09;;;;;;;;;;;1.40;99.90;;;;;;6233173;23;19924;-58
2021/12/27 13:35:34;;;;;;;;;;;1.80;99.90;;;;;;6234984;23;20297;-58
2021/12/27 13:38:00;;;;;;;;;;;1.40;99.90;;;;;;6234861;23;19919;-57
2021/12/27 13:40:26;;;;;;;;;;;1.40;99.90;;;;;;6234729;23;19923;-57
2021/12/27 13:42:51;;;;;;;;;;;1.40;99.90;;;;;;6204518;23;19959;-58
2021/12/27 13:45:17;;;;;;;;;;;1.40;99.90;;;;;;6235118;23;19966;-63
2021/12/27 13:47:54;;;;;;;;;;;1.40;99.90;;;;;;6235146;23;20459;-61
2021/12/27 13:50:27;;;;;;;;;;;1.50;99.90;;;;;;6235038;23;20338;-65
2021/12/27 13:52:54;;;;;;;;;;;1.40;99.90;;;;;;6235173;23;19934;-58
2021/12/27 13:55:21;;;;;;;;;;;1.50;99.90;;;;;;6207891;23;19924;-58
2021/12/27 13:57:46;;;;;;;;;;;1.50;99.90;;;;;;6235150;23;19969;-62
2021/12/27 14:00:12;;;;;;;;;;;1.50;99.90;;;;;;6233246;23;19927;-60
2021/12/27 14:02:43;;;;;;;;;;;1.50;99.90;;;;;;6235767;23;19931;-65
2021/12/27 14:05:09;;;;;;;;;;;1.50;99.90;;;;;;6235982;23;19923;-58
2021/12/27 14:07:35;;;;;;;;;;;1.50;99.90;;;;;;6234595;23;19923;-59
2021/12/27 14:10:01;;;;;;;;;;;1.50;99.90;;;;;;6236003;23;20253;-58
2021/12/27 14:12:32;;;;;;;;;;;1.50;99.90;;;;;;6236561;23;19924;-57
2021/12/27 14:15:01;;;;;;;;;;;1.50;99.90;;;;;;6237812;23;19931;-59
2021/12/27 14:17:28;;;;;;;;;;;1.50;99.90;;;;;;6237617;23;19931;-58
2021/12/27 14:19:59;;;;;;;;;;;1.50;99.90;;;;;;6209165;23;20248;-57
2021/12/27 14:22:26;;;;;;;;;;;1.40;99.90;;;;;;6232578;23;21002;-57